Decoded Metar for PAKN (KING SALMON in AK, USA) (IATA:AKN) | Meteo·Mobile Aviation Weather
aviador You're here:

PAKN Decoded Metar

KING SALMON in AK, USA
Report Time2018-08-17 00:54:00
UTC Time2018-08-17 01:30:13
Flight Rules vfr VFR
Wind200° at 05 kt
W.Decomp.*RWY 18: 5.0 kt HW 0.3 kt RCW
RWY 12: 2.2 kt HW 4.5 kt RCW
W.Rank200° ranks 8
Current wind is below 200° avg. (7.2)
Visibility9999 m
Phenomena:N/A
Clouds:Broken 100 Hf
Expected CloudBase > 1,200 ft AGL from Temp-Dew spread
Ceiling10,000 ft
Temp14°C (ISA -1)
Dew Point11°C (82% RH)
AAT12.5°C
QNH1015 hPa
Density Alt59 ft
Elevation56 ft
Report Wrong Elevation
Raw Report
PAKN 170054Z 20005KT 10SM BKN100 14/11 A2996=

Extra information for PAKN:More info

Metar Taf Metar & Taf Last 4 Metars F.Rules Stats Wind Profile Meteogram Temp Stats Airport Information Weather charts Add Link Nearby VenuesMetar ALERT Operation Metar Decoded Social comments

AIRNAV info for PAKN